createdAt,value
2022-12-31T00:00:40.681Z,1.33
2022-12-31T00:03:09.727Z,1.63
2022-12-31T00:05:38.043Z,1.13
2022-12-31T00:08:06.410Z,1.02
2022-12-31T00:10:41.406Z,1.65
2022-12-31T00:13:09.925Z,2.05
2022-12-31T00:15:40.479Z,2.22
2022-12-31T00:18:09.202Z,1.27
2022-12-31T00:20:40.997Z,1.30
2022-12-31T00:23:10.078Z,1.77
2022-12-31T00:25:38.176Z,1.40
2022-12-31T00:28:06.452Z,1.10
2022-12-31T00:30:35.575Z,1.63
2022-12-31T00:33:05.046Z,2.20
2022-12-31T00:35:34.720Z,1.48
2022-12-31T00:38:02.801Z,1.38
2022-12-31T00:40:30.789Z,1.50
2022-12-31T00:42:58.825Z,1.27
2022-12-31T00:45:26.929Z,1.52
2022-12-31T00:47:54.909Z,1.30
2022-12-31T00:50:24.299Z,1.17
2022-12-31T00:52:53.244Z,1.42
2022-12-31T00:55:21.432Z,1.48
2022-12-31T00:57:49.554Z,0.90
2022-12-31T01:00:18.042Z,1.55
2022-12-31T01:02:46.223Z,1.43
2022-12-31T01:05:14.280Z,1.30
2022-12-31T01:07:43.678Z,1.73
2022-12-31T01:10:11.937Z,1.40
2022-12-31T01:12:39.985Z,1.50
2022-12-31T01:15:08.792Z,1.58
2022-12-31T01:17:36.811Z,1.73
2022-12-31T01:20:07.436Z,2.83
2022-12-31T01:22:35.444Z,2.13
2022-12-31T01:25:05.306Z,1.70
2022-12-31T01:27:33.360Z,1.47
2022-12-31T01:30:01.471Z,2.08
2022-12-31T01:32:29.460Z,1.63
2022-12-31T01:34:57.633Z,1.88
2022-12-31T01:37:25.596Z,1.97
2022-12-31T01:39:53.557Z,1.25
2022-12-31T01:42:22.942Z,2.15
2022-12-31T01:44:54.469Z,1.73
2022-12-31T01:47:33.722Z,1.42
2022-12-31T01:50:08.008Z,1.60
2022-12-31T01:52:39.499Z,1.07
2022-12-31T01:55:15.989Z,1.70
2022-12-31T01:57:48.254Z,1.13
2022-12-31T02:00:17.589Z,2.07
2022-12-31T02:02:45.765Z,1.73
2022-12-31T02:05:19.129Z,1.10
2022-12-31T02:07:49.243Z,2.43
2022-12-31T02:10:17.744Z,2.20
2022-12-31T02:12:47.683Z,1.48
2022-12-31T02:15:16.186Z,1.90
2022-12-31T02:17:52.874Z,1.65
2022-12-31T02:20:55.159Z,1.60
2022-12-31T02:24:01.368Z,1.57
2022-12-31T02:26:50.791Z,2.17
2022-12-31T02:29:47.987Z,2.00
2022-12-31T02:32:21.047Z,1.63
2022-12-31T02:34:54.236Z,1.60
2022-12-31T02:37:27.997Z,2.78
2022-12-31T02:39:56.547Z,2.05
2022-12-31T02:42:24.594Z,1.25
2022-12-31T02:44:52.580Z,1.27
2022-12-31T02:47:31.931Z,1.20
2022-12-31T02:50:09.697Z,1.43
2022-12-31T02:52:50.173Z,1.50
2022-12-31T02:55:25.575Z,1.50
2022-12-31T02:58:00.122Z,1.63
2022-12-31T03:00:48.791Z,0.93
2022-12-31T03:03:20.305Z,1.10
2022-12-31T03:05:51.041Z,1.37
2022-12-31T03:08:23.174Z,1.20
2022-12-31T03:10:51.300Z,1.20
2022-12-31T03:13:18.589Z,1.20
2022-12-31T03:15:49.651Z,1.10
2022-12-31T03:18:40.946Z,1.38
2022-12-31T03:21:28.091Z,0.77
2022-12-31T03:24:13.733Z,0.90
2022-12-31T03:26:41.797Z,1.00
2022-12-31T03:29:09.793Z,1.20
2022-12-31T03:31:37.777Z,1.00
2022-12-31T03:34:07.100Z,0.93
2022-12-31T03:36:35.130Z,1.03
2022-12-31T03:39:04.829Z,1.55
2022-12-31T03:41:32.809Z,1.30
2022-12-31T03:44:00.866Z,1.00
2022-12-31T03:46:28.844Z,0.55
2022-12-31T03:48:56.837Z,0.80
2022-12-31T03:51:26.183Z,0.80
2022-12-31T03:53:54.383Z,0.60
2022-12-31T03:56:22.365Z,0.70
2022-12-31T03:58:50.467Z,1.27
2022-12-31T04:01:19.242Z,0.43
2022-12-31T04:03:47.487Z,0.55
2022-12-31T04:06:15.466Z,0.32
2022-12-31T04:08:44.896Z,0.30
2022-12-31T04:13:49.909Z,0.30
2022-12-31T04:16:17.954Z,0.30
2022-12-31T04:18:46.050Z,0.30
2022-12-31T04:21:14.043Z,0.30
2022-12-31T04:23:42.043Z,0.30
2022-12-31T04:26:11.455Z,0.40
2022-12-31T04:28:39.431Z,0.30
2022-12-31T04:31:07.480Z,0.30
2022-12-31T04:33:35.463Z,0.30
2022-12-31T04:36:03.868Z,0.30
2022-12-31T04:38:32.004Z,0.37
2022-12-31T04:41:17.373Z,0.40
2022-12-31T04:43:49.167Z,0.40
2022-12-31T04:46:19.299Z,0.30
2022-12-31T04:48:47.532Z,0.35
2022-12-31T04:51:16.253Z,0.38
2022-12-31T04:53:44.293Z,0.28
2022-12-31T04:56:12.886Z,0.50
2022-12-31T04:58:41.460Z,1.15
2022-12-31T05:01:11.966Z,0.80
2022-12-31T05:03:40.557Z,0.70
2022-12-31T05:06:13.460Z,0.93
2022-12-31T05:08:41.556Z,1.10
2022-12-31T05:11:09.700Z,0.90
2022-12-31T05:13:38.099Z,0.88
2022-12-31T05:16:06.921Z,1.00
2022-12-31T05:18:36.327Z,2.40
2022-12-31T05:21:05.000Z,1.38
2022-12-31T05:23:33.318Z,1.52
2022-12-31T05:26:01.963Z,1.20
2022-12-31T05:28:29.921Z,2.03
2022-12-31T05:30:57.991Z,1.63
2022-12-31T05:33:26.130Z,2.25
2022-12-31T05:35:57.914Z,2.15
2022-12-31T05:38:26.268Z,1.15
2022-12-31T05:41:00.702Z,2.10
2022-12-31T05:43:28.876Z,1.60
2022-12-31T05:45:56.924Z,1.45
2022-12-31T05:48:25.191Z,1.63
2022-12-31T05:50:53.151Z,1.60
2022-12-31T05:53:22.586Z,3.22
2022-12-31T05:55:51.693Z,2.30
2022-12-31T05:58:20.027Z,1.20
2022-12-31T06:00:48.015Z,1.73
2022-12-31T06:03:16.477Z,1.42
2022-12-31T06:05:44.633Z,2.83
2022-12-31T06:08:13.369Z,1.92
2022-12-31T06:10:42.754Z,2.30
2022-12-31T06:13:10.771Z,1.83
2022-12-31T06:15:40.505Z,1.23
2022-12-31T06:18:08.893Z,1.58
2022-12-31T06:20:38.126Z,1.42
2022-12-31T06:23:06.804Z,1.85
2022-12-31T06:25:37.372Z,2.37
2022-12-31T06:28:07.185Z,2.25
2022-12-31T06:30:35.161Z,1.88
2022-12-31T06:33:03.229Z,2.97
2022-12-31T06:35:32.323Z,2.60
2022-12-31T06:38:00.663Z,2.08
2022-12-31T06:40:28.679Z,3.50
2022-12-31T06:43:00.095Z,2.42
2022-12-31T06:45:29.918Z,3.63
2022-12-31T06:47:57.910Z,2.97
2022-12-31T06:50:25.926Z,2.40
2022-12-31T06:52:54.955Z,2.60
2022-12-31T06:55:23.645Z,2.10
2022-12-31T06:57:52.254Z,2.45
2022-12-31T07:00:21.750Z,1.58
2022-12-31T07:03:05.650Z,2.13
2022-12-31T07:05:43.165Z,2.00
2022-12-31T07:08:22.845Z,1.85
2022-12-31T07:10:57.408Z,3.00
2022-12-31T07:13:39.641Z,1.88
2022-12-31T07:16:21.153Z,1.42
2022-12-31T07:18:57.594Z,1.67
2022-12-31T07:21:34.579Z,1.05
2022-12-31T07:24:03.205Z,1.80
2022-12-31T07:26:51.127Z,1.48
2022-12-31T07:32:06.867Z,2.33
2022-12-31T07:34:45.907Z,1.50
2022-12-31T07:37:21.937Z,1.42
2022-12-31T07:40:04.399Z,1.40
2022-12-31T07:42:40.031Z,1.10
2022-12-31T07:45:17.617Z,2.10
2022-12-31T07:47:47.544Z,1.13
2022-12-31T07:50:19.839Z,1.92
2022-12-31T07:52:48.489Z,1.00
2022-12-31T07:55:16.734Z,1.23
2022-12-31T07:57:58.583Z,2.03
2022-12-31T08:00:27.918Z,1.73
2022-12-31T08:03:25.491Z,1.63
2022-12-31T08:06:09.446Z,1.27
2022-12-31T08:08:45.420Z,1.63
2022-12-31T08:11:20.235Z,1.75
2022-12-31T08:13:48.841Z,2.53
2022-12-31T08:16:17.483Z,2.00
2022-12-31T08:18:46.048Z,2.10
2022-12-31T08:21:32.708Z,2.58
2022-12-31T08:24:11.770Z,2.30
2022-12-31T08:26:54.140Z,2.63
2022-12-31T08:29:35.028Z,3.15
2022-12-31T08:32:12.150Z,1.95
2022-12-31T08:34:49.610Z,1.98
2022-12-31T08:37:27.529Z,2.42
2022-12-31T08:40:08.987Z,2.80
2022-12-31T08:42:45.918Z,2.22
2022-12-31T08:45:21.721Z,3.10
2022-12-31T08:48:00.299Z,2.72
2022-12-31T08:50:29.462Z,2.53
2022-12-31T08:52:59.762Z,2.35
2022-12-31T08:55:28.706Z,2.40
2022-12-31T08:58:09.833Z,3.65
2022-12-31T09:00:40.012Z,2.15
2022-12-31T09:03:25.472Z,3.47
2022-12-31T09:06:03.721Z,2.10
2022-12-31T09:08:42.801Z,3.22
2022-12-31T09:11:22.601Z,2.00
2022-12-31T09:14:10.949Z,2.83
2022-12-31T09:16:49.712Z,2.63
2022-12-31T09:19:17.867Z,2.47
2022-12-31T09:21:46.223Z,2.38
2022-12-31T09:24:17.045Z,1.90
2022-12-31T09:26:57.552Z,2.78
2022-12-31T09:29:44.356Z,3.20
2022-12-31T09:32:22.212Z,2.85
2022-12-31T09:34:57.704Z,2.40
2022-12-31T09:37:39.723Z,2.33
2022-12-31T09:40:31.054Z,2.55
2022-12-31T09:43:23.264Z,2.33
2022-12-31T09:46:16.339Z,2.40
2022-12-31T09:49:37.822Z,2.10
2022-12-31T09:54:54.430Z,1.75
2022-12-31T09:57:35.184Z,1.63
2022-12-31T10:00:11.078Z,2.50
2022-12-31T10:03:00.590Z,2.53
2022-12-31T10:05:51.532Z,4.05
2022-12-31T10:08:34.836Z,2.80
2022-12-31T10:11:07.612Z,2.35
2022-12-31T10:13:47.535Z,2.42
2022-12-31T10:16:55.090Z,2.80
2022-12-31T10:20:07.179Z,2.35
2022-12-31T10:22:55.856Z,1.95
2022-12-31T10:25:39.386Z,2.05
2022-12-31T10:28:22.742Z,1.88
2022-12-31T10:31:01.317Z,2.35
2022-12-31T10:33:42.615Z,1.90
2022-12-31T10:36:20.064Z,1.77
2022-12-31T10:38:58.480Z,1.67
2022-12-31T10:42:03.258Z,2.33
2022-12-31T10:44:59.501Z,2.10
2022-12-31T10:47:49.173Z,1.50
2022-12-31T10:50:55.786Z,1.52
2022-12-31T10:53:56.570Z,1.58
2022-12-31T10:57:15.168Z,1.30
2022-12-31T11:00:08.689Z,0.88
2022-12-31T11:03:29.688Z,1.25
2022-12-31T11:06:36.424Z,1.30
2022-12-31T11:09:41.148Z,0.77
2022-12-31T11:12:25.681Z,0.90
2022-12-31T11:15:19.250Z,1.05
2022-12-31T11:17:59.416Z,0.90
2022-12-31T11:20:56.964Z,0.97
2022-12-31T11:23:37.081Z,0.98
2022-12-31T11:26:18.746Z,0.73
2022-12-31T11:29:04.523Z,0.77
2022-12-31T11:31:45.425Z,0.65
2022-12-31T11:34:24.951Z,0.80
2022-12-31T11:37:11.720Z,0.77
2022-12-31T11:39:48.286Z,0.80
2022-12-31T11:42:22.254Z,0.50
2022-12-31T11:44:58.619Z,0.70
2022-12-31T11:48:04.295Z,0.65
2022-12-31T11:50:43.816Z,0.70
2022-12-31T11:53:30.975Z,0.70
2022-12-31T11:56:11.365Z,1.55
2022-12-31T11:58:42.073Z,0.63
2022-12-31T12:01:17.482Z,1.00
2022-12-31T12:03:46.428Z,0.57
2022-12-31T12:06:16.607Z,0.80
2022-12-31T12:08:45.972Z,0.90
2022-12-31T12:11:21.854Z,0.60
2022-12-31T12:13:49.988Z,0.70
2022-12-31T12:16:22.412Z,0.50
2022-12-31T12:18:52.954Z,0.68
2022-12-31T12:21:23.838Z,0.98
2022-12-31T12:23:57.269Z,1.25
2022-12-31T12:26:31.389Z,1.10
2022-12-31T12:29:01.340Z,1.70
2022-12-31T12:31:34.190Z,1.70
2022-12-31T12:34:02.275Z,1.67
2022-12-31T12:36:30.332Z,2.72
2022-12-31T12:39:03.427Z,1.63
2022-12-31T12:41:31.411Z,2.13
2022-12-31T12:44:07.829Z,3.35
2022-12-31T12:46:47.960Z,2.00
2022-12-31T12:49:23.148Z,2.38
2022-12-31T12:52:36.782Z,3.35
2022-12-31T12:55:16.685Z,1.90
2022-12-31T12:57:49.688Z,1.60
2022-12-31T13:00:20.380Z,2.33
2022-12-31T13:03:21.233Z,1.75
2022-12-31T13:06:16.559Z,1.70
2022-12-31T13:09:00.693Z,2.10
2022-12-31T13:11:38.707Z,2.05
2022-12-31T13:14:18.613Z,2.72
2022-12-31T13:16:54.416Z,2.75
2022-12-31T13:19:32.051Z,3.35
2022-12-31T13:22:06.378Z,2.47
2022-12-31T13:24:54.279Z,2.35
2022-12-31T13:27:29.715Z,1.73
2022-12-31T13:30:01.978Z,1.83
2022-12-31T13:32:39.922Z,2.25
2022-12-31T13:35:24.455Z,3.55
2022-12-31T13:38:05.174Z,3.20
2022-12-31T13:40:42.173Z,2.20
2022-12-31T13:43:17.801Z,3.45
2022-12-31T13:45:59.393Z,2.47
2022-12-31T13:48:35.811Z,2.78
2022-12-31T13:51:09.250Z,3.53
2022-12-31T13:53:46.624Z,2.75
2022-12-31T13:56:19.124Z,4.00
2022-12-31T13:58:53.178Z,2.80
2022-12-31T14:01:29.406Z,2.75
2022-12-31T14:04:07.284Z,4.18
2022-12-31T14:06:42.277Z,2.45
2022-12-31T14:09:18.787Z,2.30
2022-12-31T14:12:10.327Z,3.40
2022-12-31T14:14:47.152Z,13.32
2022-12-31T14:17:23.701Z,3.72
2022-12-31T14:20:07.211Z,3.45
2022-12-31T14:22:42.901Z,2.95
2022-12-31T14:25:22.450Z,2.97
2022-12-31T14:27:54.490Z,2.88
2022-12-31T14:30:24.516Z,2.65
2022-12-31T14:33:21.945Z,2.53
2022-12-31T14:36:02.849Z,2.47
2022-12-31T14:38:48.614Z,3.88
2022-12-31T14:41:35.735Z,3.38
2022-12-31T14:44:18.736Z,4.00
2022-12-31T14:47:02.100Z,3.28
2022-12-31T14:49:40.294Z,3.90
2022-12-31T14:52:22.915Z,4.22
2022-12-31T14:55:02.784Z,3.58
2022-12-31T14:58:16.807Z,4.45
2022-12-31T15:00:34.315Z,4.15
2022-12-31T15:03:04.667Z,3.70
2022-12-31T15:05:35.577Z,5.82
2022-12-31T15:08:18.992Z,5.25
2022-12-31T15:10:59.673Z,4.85
2022-12-31T15:13:45.112Z,5.05
2022-12-31T15:16:35.869Z,4.93
2022-12-31T15:19:43.600Z,4.82
2022-12-31T15:22:25.828Z,5.68
2022-12-31T15:24:54.104Z,4.50
2022-12-31T15:27:34.116Z,5.75
2022-12-31T15:30:06.002Z,6.13
2022-12-31T15:32:38.057Z,5.53
2022-12-31T15:35:27.025Z,4.63
2022-12-31T15:38:03.196Z,5.60
2022-12-31T15:40:32.054Z,6.85
2022-12-31T15:43:05.625Z,6.30
2022-12-31T15:45:39.931Z,5.15
2022-12-31T15:48:14.725Z,5.15
2022-12-31T15:50:44.246Z,5.70
2022-12-31T15:53:25.926Z,5.43
2022-12-31T15:55:55.752Z,5.30
2022-12-31T15:58:26.889Z,5.38
2022-12-31T16:01:04.605Z,5.40
2022-12-31T16:03:33.180Z,4.30
2022-12-31T16:06:03.524Z,5.70
2022-12-31T16:08:34.738Z,6.10
2022-12-31T16:11:05.062Z,6.18
2022-12-31T16:13:36.229Z,5.53
2022-12-31T16:18:40.079Z,5.22
2022-12-31T16:21:23.673Z,4.85
2022-12-31T16:23:52.161Z,5.90
2022-12-31T16:26:20.526Z,5.18
2022-12-31T16:28:50.245Z,6.50
2022-12-31T16:31:20.906Z,7.40
2022-12-31T16:33:49.150Z,7.63
2022-12-31T16:36:24.080Z,6.80
2022-12-31T16:38:53.196Z,6.22
2022-12-31T16:41:22.139Z,7.40
2022-12-31T16:43:51.487Z,7.22
2022-12-31T16:46:26.815Z,7.32
2022-12-31T16:48:58.494Z,5.90
2022-12-31T16:51:30.071Z,7.38
2022-12-31T16:53:59.622Z,6.55
2022-12-31T16:56:32.880Z,7.72
2022-12-31T16:59:03.320Z,9.00
2022-12-31T17:01:35.992Z,6.78
2022-12-31T17:04:09.190Z,5.70
2022-12-31T17:06:39.209Z,5.55
2022-12-31T17:09:14.497Z,5.68
2022-12-31T17:11:50.455Z,8.13
2022-12-31T17:14:20.613Z,6.55
2022-12-31T17:17:02.566Z,4.95
2022-12-31T17:19:41.576Z,4.95
2022-12-31T17:22:16.710Z,4.95
2022-12-31T17:24:45.076Z,6.68
2022-12-31T17:27:13.240Z,5.75
2022-12-31T17:29:42.356Z,5.80
2022-12-31T17:35:29.212Z,6.53
2022-12-31T17:38:28.651Z,6.80
2022-12-31T17:41:05.439Z,35.75
2022-12-31T17:43:35.536Z,7.55
2022-12-31T17:46:10.073Z,5.90
2022-12-31T17:48:38.457Z,5.88
2022-12-31T17:51:08.034Z,6.20
2022-12-31T17:53:36.176Z,5.50
2022-12-31T17:56:06.248Z,4.78
2022-12-31T17:58:37.512Z,5.30
2022-12-31T18:01:07.705Z,6.30
2022-12-31T18:03:36.697Z,5.15
2022-12-31T18:06:05.465Z,5.25
2022-12-31T18:08:34.845Z,3.67
2022-12-31T18:11:02.929Z,5.85
2022-12-31T18:13:31.404Z,5.18
2022-12-31T18:15:59.791Z,5.57
2022-12-31T18:18:29.392Z,5.00
2022-12-31T18:20:59.839Z,6.05
2022-12-31T18:23:30.136Z,4.85
2022-12-31T18:25:59.456Z,5.40
2022-12-31T18:28:27.552Z,5.43
2022-12-31T18:30:56.847Z,7.13
2022-12-31T18:33:26.844Z,5.15
2022-12-31T18:36:10.706Z,5.22
2022-12-31T18:38:39.330Z,4.53
2022-12-31T18:41:16.526Z,4.97
2022-12-31T18:43:44.708Z,5.28
2022-12-31T18:46:14.963Z,5.40
2022-12-31T18:48:44.264Z,5.05
2022-12-31T18:51:15.196Z,5.55
2022-12-31T18:53:43.449Z,5.75
2022-12-31T18:56:15.055Z,6.65
2022-12-31T18:58:43.782Z,5.30
2022-12-31T19:01:25.982Z,5.07
2022-12-31T19:03:54.798Z,4.10
2022-12-31T19:06:23.376Z,4.93
2022-12-31T19:08:51.603Z,5.65
2022-12-31T19:11:22.113Z,4.60
2022-12-31T19:13:50.990Z,4.22
2022-12-31T19:16:19.254Z,4.85
2022-12-31T19:18:47.506Z,5.32
2022-12-31T19:21:17.959Z,5.45
2022-12-31T19:23:46.741Z,5.53
2022-12-31T19:26:19.783Z,5.38
2022-12-31T19:28:50.874Z,4.88
2022-12-31T19:31:19.497Z,6.07
2022-12-31T19:33:47.567Z,7.47
2022-12-31T19:36:17.541Z,6.63
2022-12-31T19:38:46.220Z,7.13
2022-12-31T19:41:17.180Z,6.32
2022-12-31T19:46:16.740Z,4.45
2022-12-31T19:48:47.872Z,7.43
2022-12-31T19:53:46.145Z,5.70
2022-12-31T19:56:16.462Z,4.78
2022-12-31T19:58:45.429Z,5.38
2022-12-31T20:01:19.480Z,4.55
2022-12-31T20:03:47.880Z,5.47
2022-12-31T20:06:17.345Z,4.88
2022-12-31T20:08:46.636Z,6.53
2022-12-31T20:11:17.424Z,5.60
2022-12-31T20:13:46.971Z,5.78
2022-12-31T20:16:18.092Z,5.85
2022-12-31T20:18:48.356Z,5.68
2022-12-31T20:21:19.030Z,5.65
2022-12-31T20:23:47.165Z,3.35
2022-12-31T20:26:15.302Z,6.15
2022-12-31T20:28:43.512Z,7.13
2022-12-31T20:31:13.614Z,6.13
2022-12-31T20:33:43.522Z,4.80
2022-12-31T20:36:14.025Z,3.22
2022-12-31T20:38:42.458Z,3.90
2022-12-31T20:41:13.025Z,4.20
2022-12-31T20:43:41.359Z,3.13
2022-12-31T20:46:15.248Z,2.95
2022-12-31T20:48:46.225Z,3.55
2022-12-31T20:51:16.518Z,3.15
2022-12-31T20:53:48.758Z,3.22
2022-12-31T20:56:17.567Z,2.65
2022-12-31T20:58:46.111Z,4.10
2022-12-31T21:01:15.827Z,14.48
2022-12-31T21:04:04.824Z,3.70
2022-12-31T21:06:35.483Z,3.72
2022-12-31T21:09:05.727Z,3.63
2022-12-31T21:11:51.262Z,2.92
2022-12-31T21:14:19.807Z,2.15
2022-12-31T21:16:48.424Z,2.90
2022-12-31T21:19:17.932Z,2.70
2022-12-31T21:21:48.215Z,2.80
2022-12-31T21:24:23.246Z,3.72
2022-12-31T21:26:51.796Z,3.00
2022-12-31T21:29:19.767Z,2.90
2022-12-31T21:31:47.769Z,2.95
2022-12-31T21:34:17.138Z,1.95
2022-12-31T21:36:45.260Z,2.30
2022-12-31T21:39:13.357Z,3.30
2022-12-31T21:41:53.469Z,2.38
2022-12-31T21:44:22.873Z,2.47
2022-12-31T21:47:33.338Z,2.33
2022-12-31T21:49:43.974Z,2.47
2022-12-31T21:52:27.037Z,2.65
2022-12-31T21:55:12.989Z,2.75
2022-12-31T21:58:15.683Z,2.33
2022-12-31T22:00:47.479Z,3.03
2022-12-31T22:03:28.538Z,2.55
2022-12-31T22:05:59.939Z,1.73
2022-12-31T22:08:29.723Z,1.98
2022-12-31T22:10:58.149Z,2.40
2022-12-31T22:13:26.312Z,2.65
2022-12-31T22:16:01.755Z,2.67
2022-12-31T22:18:34.500Z,2.47
2022-12-31T22:21:05.748Z,3.33
2022-12-31T22:23:34.957Z,3.20
2022-12-31T22:26:04.649Z,3.97
2022-12-31T22:28:38.799Z,5.32
2022-12-31T22:31:07.980Z,3.78
2022-12-31T22:33:36.115Z,2.97
2022-12-31T22:36:08.129Z,2.60
2022-12-31T22:38:36.397Z,2.20
2022-12-31T22:41:06.750Z,3.03
2022-12-31T22:43:36.464Z,1.90
2022-12-31T22:46:09.743Z,2.55
2022-12-31T22:48:37.943Z,2.33
2022-12-31T22:51:08.653Z,2.17
2022-12-31T22:53:38.587Z,2.33
2022-12-31T22:56:07.176Z,2.65
2022-12-31T22:58:35.583Z,2.15
2022-12-31T23:01:05.642Z,2.72
2022-12-31T23:03:33.759Z,2.93
2022-12-31T23:06:02.007Z,2.60
2022-12-31T23:08:31.430Z,2.33
2022-12-31T23:11:01.366Z,2.22
2022-12-31T23:13:50.979Z,2.37
2022-12-31T23:16:37.513Z,2.00
2022-12-31T23:19:23.782Z,2.72
2022-12-31T23:22:09.862Z,2.97
2022-12-31T23:24:39.527Z,2.45
2022-12-31T23:27:08.201Z,2.03
2022-12-31T23:29:45.585Z,1.90
2022-12-31T23:32:15.096Z,1.92
2022-12-31T23:34:44.275Z,2.78
2022-12-31T23:37:12.311Z,2.10
2022-12-31T23:39:42.631Z,2.03
2022-12-31T23:42:10.772Z,2.00
2022-12-31T23:44:38.874Z,2.10
2022-12-31T23:47:07.163Z,2.90
2022-12-31T23:49:35.322Z,2.08
2022-12-31T23:52:03.453Z,2.85
2022-12-31T23:54:31.600Z,1.63
2022-12-31T23:57:01.005Z,1.88
2022-12-31T23:59:28.991Z,2.28
